Time;durP1;ratioP1;P1;durP2;ratioP2;P2;SDS_P1;SDS_P2;PMS_P1;PMS_P2;Temp;Humidity;BMP_temperature;BMP_pressure;BME280_temperature;BME280_humidity;BME280_pressure;Samples;Min_cycle;Max_cycle;Signal;HPM_P1;HPM_P2
2023/10/15 00:00:00;;;;;;;4.80;1.80;;;;;;;10.24;94.52;96316.09;108799;1266;22583;-71
2023/10/15 00:02:33;;;;;;;4.40;1.90;;;;;;;10.27;94.57;96319.39;108801;1273;22477;-71
2023/10/15 00:05:08;;;;;;;5.60;2.20;;;;;;;10.32;94.55;96324.48;108774;1273;24212;-71
2023/10/15 00:07:40;;;;;;;6.40;2.00;;;;;;;10.36;94.47;96324.52;108757;1250;25259;-71
2023/10/15 00:10:13;;;;;;;3.90;1.60;;;;;;;10.43;94.32;96328.27;108770;1266;22596;-70
2023/10/15 00:12:47;;;;;;;5.40;1.70;;;;;;;10.47;94.12;96327.53;108797;1273;23436;-71
2023/10/15 00:15:19;;;;;;;5.80;2.50;;;;;;;10.48;93.99;96333.19;108821;1273;22732;-71
2023/10/15 00:17:52;;;;;;;4.90;1.70;;;;;;;10.47;93.93;96338.30;108820;1273;22544;-71
2023/10/15 00:20:26;;;;;;;6.20;1.80;;;;;;;10.46;93.97;96336.94;108844;1267;22806;-71
2023/10/15 00:22:59;;;;;;;4.50;2.00;;;;;;;10.46;94.03;96335.19;108864;1267;22647;-71
2023/10/15 00:25:36;;;;;;;4.00;1.90;;;;;;;10.48;94.18;96335.52;108871;1273;22525;-71
2023/10/15 00:28:16;;;;;;;4.10;1.70;;;;;;;10.56;94.45;96335.43;108850;1273;23148;-71
2023/10/15 00:30:48;;;;;;;5.40;1.90;;;;;;;10.58;93.71;96343.84;108779;1272;22525;-71
2023/10/15 00:33:19;;;;;;;5.80;1.70;;;;;;;10.52;93.60;96360.80;108846;1268;22519;-71
2023/10/15 00:35:55;;;;;;;8.10;2.40;;;;;;;10.46;93.53;96362.11;108812;1269;22556;-71
2023/10/15 00:38:29;;;;;;;8.10;2.50;;;;;;;10.45;93.41;96356.40;108871;1273;24269;-71
2023/10/15 00:41:08;;;;;;;10.50;2.60;;;;;;;10.42;93.18;96367.19;108862;1273;22529;-71
2023/10/15 00:43:50;;;;;;;4.10;1.70;;;;;;;10.37;93.11;96370.63;108850;1272;25256;-71
2023/10/15 00:46:24;;;;;;;3.90;1.50;;;;;;;10.34;93.14;96366.64;108863;1273;22535;-71
2023/10/15 00:48:57;;;;;;;5.20;2.00;;;;;;;10.32;93.00;96348.59;108846;1268;22558;-71
2023/10/15 00:51:28;;;;;;;8.50;1.90;;;;;;;10.30;92.86;96349.52;108885;1250;22513;-71
2023/10/15 00:54:09;;;;;;;9.20;3.20;;;;;;;10.27;92.62;96348.05;108847;1272;22642;-71
2023/10/15 00:56:41;;;;;;;4.70;1.70;;;;;;;10.23;92.47;96351.44;108856;1273;22580;-71
2023/10/15 00:59:17;;;;;;;5.00;1.80;;;;;;;10.20;92.34;96348.00;108827;1265;25419;-71
2023/10/15 01:02:02;;;;;;;5.90;1.80;;;;;;;10.15;92.20;96346.26;108821;1273;23784;-71
2023/10/15 01:04:35;;;;;;;4.60;1.80;;;;;;;10.07;92.08;96348.30;108836;1273;22533;-71
2023/10/15 01:07:21;;;;;;;6.90;1.90;;;;;;;10.01;91.93;96345.98;108821;1272;25415;-71
2023/10/15 01:09:53;;;;;;;5.00;1.40;;;;;;;9.95;91.93;96347.55;108898;1266;22607;-71
2023/10/15 01:12:30;;;;;;;8.60;1.70;;;;;;;9.92;91.90;96335.38;108864;1273;22621;-71
2023/10/15 01:15:02;;;;;;;4.20;1.60;;;;;;;9.90;91.87;96336.23;108835;1266;22632;-71
2023/10/15 01:17:39;;;;;;;8.20;2.10;;;;;;;9.92;91.71;96330.98;108825;1273;23777;-71
2023/10/15 01:20:11;;;;;;;5.10;1.80;;;;;;;9.90;91.69;96330.15;108842;1265;22531;-71
2023/10/15 01:22:43;;;;;;;8.60;2.40;;;;;;;9.89;91.86;96318.30;108841;1266;22537;-71
2023/10/15 01:25:24;;;;;;;4.90;1.60;;;;;;;9.90;91.83;96314.73;108883;1273;24333;-71
2023/10/15 01:28:00;;;;;;;3.90;1.50;;;;;;;9.87;91.74;96308.52;108853;1272;26354;-71
2023/10/15 01:30:36;;;;;;;5.10;1.50;;;;;;;9.82;91.79;96302.67;108814;1273;25049;-71
2023/10/15 01:33:10;;;;;;;5.40;1.50;;;;;;;9.78;91.89;96296.43;108870;1266;23195;-71
2023/10/15 01:35:44;;;;;;;3.50;1.40;;;;;;;9.74;92.07;96301.98;108883;1273;24360;-71
2023/10/15 01:38:20;;;;;;;7.20;2.00;;;;;;;9.69;92.26;96302.59;108847;1273;22511;-71
2023/10/15 01:40:56;;;;;;;4.30;1.40;;;;;;;9.67;92.29;96300.98;108857;1269;23757;-71
2023/10/15 01:43:27;;;;;;;4.60;1.40;;;;;;;9.65;92.30;96294.01;108852;1272;23804;-71
2023/10/15 01:46:07;;;;;;;5.40;1.70;;;;;;;9.65;92.34;96296.93;108799;1273;22664;-71
2023/10/15 01:48:41;;;;;;;6.60;1.80;;;;;;;9.65;92.40;96296.66;108823;1266;23256;-71
2023/10/15 01:51:16;;;;;;;5.70;1.50;;;;;;;9.67;92.20;96303.52;108837;1250;22507;-71
2023/10/15 01:53:48;;;;;;;3.80;1.50;;;;;;;9.67;92.12;96306.06;108868;1273;22532;-71
2023/10/15 01:56:23;;;;;;;14.10;2.80;;;;;;;9.66;92.07;96310.46;108821;1272;24283;-71
2023/10/15 01:58:55;;;;;;;4.70;1.90;;;;;;;9.67;92.07;96313.26;108799;1273;22510;-71
2023/10/15 02:01:34;;;;;;;6.60;2.40;;;;;;;9.68;92.00;96310.76;108866;1272;22514;-71
2023/10/15 02:04:06;;;;;;;3.70;1.20;;;;;;;9.68;91.75;96305.15;108825;1272;22592;-71
2023/10/15 02:06:44;;;;;;;6.10;2.40;;;;;;;9.68;91.73;96302.55;108842;1266;23750;-71
2023/10/15 02:09:21;;;;;;;3.90;1.60;;;;;;;9.68;91.65;96300.64;108880;1273;22520;-71
2023/10/15 02:11:54;;;;;;;7.30;2.10;;;;;;;9.72;91.60;96299.40;108840;1265;22546;-71
2023/10/15 02:14:27;;;;;;;4.70;1.50;;;;;;;9.75;91.53;96305.63;108845;1272;22517;-71
2023/10/15 02:17:05;;;;;;;5.70;1.60;;;;;;;9.74;91.35;96308.70;108854;1264;25434;-71
2023/10/15 02:19:40;;;;;;;9.40;2.00;;;;;;;9.71;91.34;96299.73;108809;1269;24229;-71
2023/10/15 02:22:13;;;;;;;4.50;1.40;;;;;;;9.73;91.39;96294.27;108851;1273;24244;-71
2023/10/15 02:24:47;;;;;;;5.30;1.50;;;;;;;9.73;91.39;96291.98;108865;1264;22541;-71
2023/10/15 02:27:23;;;;;;;7.30;1.70;;;;;;;9.74;91.32;96285.73;108895;1266;23835;-71
2023/10/15 02:29:55;;;;;;;6.40;1.80;;;;;;;9.74;91.34;96289.13;108843;1266;22568;-71
2023/10/15 02:32:31;;;;;;;4.80;1.50;;;;;;;9.75;91.48;96294.13;108871;1266;25124;-71
2023/10/15 02:35:12;;;;;;;6.20;1.90;;;;;;;9.76;91.56;96286.65;108892;1273;22559;-71
2023/10/15 02:37:46;;;;;;;4.00;1.70;;;;;;;9.78;91.37;96290.17;108862;1273;22517;-72
2023/10/15 02:40:18;;;;;;;5.50;1.60;;;;;;;9.76;91.06;96295.12;108805;1269;23890;-71
2023/10/15 02:42:53;;;;;;;5.40;1.80;;;;;;;9.71;91.06;96295.17;108783;1257;22548;-71
2023/10/15 02:45:24;;;;;;;11.20;2.40;;;;;;;9.70;91.25;96303.22;108847;1266;25259;-71
2023/10/15 02:47:56;;;;;;;6.60;1.70;;;;;;;9.66;91.24;96295.70;108841;1273;22514;-71
2023/10/15 02:50:27;;;;;;;6.40;2.10;;;;;;;9.67;91.45;96293.36;108879;1266;23787;-71
2023/10/15 02:53:04;;;;;;;5.10;1.70;;;;;;;9.69;91.61;96293.64;108829;1273;24225;-71
2023/10/15 02:55:47;;;;;;;5.80;2.40;;;;;;;9.68;91.29;96298.48;108870;1269;22545;-71
2023/10/15 02:58:22;;;;;;;4.70;1.50;;;;;;;9.68;91.27;96319.29;108883;1272;22701;-71
2023/10/15 03:00:59;;;;;;;5.40;1.80;;;;;;;9.64;91.20;96322.56;108922;1267;22921;-71
2023/10/15 03:03:37;;;;;;;6.70;1.90;;;;;;;9.59;90.99;96320.77;108940;1266;22578;-71
2023/10/15 03:06:10;;;;;;;9.00;1.90;;;;;;;9.56;90.97;96310.97;108980;1266;23996;-71
2023/10/15 03:08:45;;;;;;;6.90;1.90;;;;;;;9.55;90.83;96316.85;108878;1269;22524;-71
2023/10/15 03:11:18;;;;;;;4.80;1.80;;;;;;;9.55;90.79;96322.95;108898;1273;22532;-71
2023/10/15 03:13:53;;;;;;;8.10;2.30;;;;;;;9.57;90.86;96318.11;108932;1268;22569;-71
2023/10/15 03:16:26;;;;;;;6.90;1.70;;;;;;;9.58;90.93;96336.70;108976;1269;24047;-71
2023/10/15 03:19:07;;;;;;;5.20;1.60;;;;;;;9.57;90.97;96343.89;108904;1272;22514;-71
2023/10/15 03:21:40;;;;;;;8.80;1.90;;;;;;;9.57;91.13;96340.30;109002;1269;23858;-72
2023/10/15 03:24:14;;;;;;;6.00;1.60;;;;;;;9.62;91.32;96349.09;108923;1273;23791;-71
2023/10/15 03:26:47;;;;;;;6.30;2.00;;;;;;;9.62;90.97;96366.20;108974;1272;22535;-71
2023/10/15 03:29:21;;;;;;;6.60;2.00;;;;;;;9.63;91.08;96367.89;108932;1270;23211;-71
2023/10/15 03:32:04;;;;;;;9.60;2.70;;;;;;;9.65;91.15;96354.25;108949;1273;22573;-71
2023/10/15 03:34:47;;;;;;;5.70;2.10;;;;;;;9.68;90.98;96344.74;108941;1268;22548;-71
2023/10/15 03:37:22;;;;;;;8.50;2.30;;;;;;;9.68;90.86;96340.36;108964;1267;22619;-71
2023/10/15 03:39:56;;;;;;;6.10;1.80;;;;;;;9.68;90.71;96323.46;108923;1272;22810;-71
2023/10/15 03:42:27;;;;;;;5.30;2.10;;;;;;;9.72;90.90;96316.98;108920;1273;22507;-71
2023/10/15 03:45:08;;;;;;;10.30;3.10;;;;;;;9.72;90.73;96313.11;108932;1273;22524;-71
2023/10/15 03:47:46;;;;;;;6.70;2.00;;;;;;;9.70;90.32;96316.61;108983;1270;25617;-71
2023/10/15 03:50:18;;;;;;;7.40;2.80;;;;;;;9.61;89.95;96325.56;109020;1273;22651;-71
2023/10/15 03:52:49;;;;;;;6.90;2.00;;;;;;;9.54;89.75;96341.85;108916;1272;22521;-71
2023/10/15 03:55:20;;;;;;;4.00;1.40;;;;;;;9.48;89.43;96345.45;108874;1267;25511;-71
2023/10/15 03:57:53;;;;;;;5.90;2.20;;;;;;;9.42;89.23;96346.66;108899;1266;25268;-71
2023/10/15 04:00:35;;;;;;;8.30;2.80;;;;;;;9.38;89.19;96341.45;108850;1266;24302;-71
2023/10/15 04:03:18;;;;;;;5.70;2.30;;;;;;;9.35;89.17;96331.00;108911;1273;23828;-71
2023/10/15 04:06:05;;;;;;;6.80;1.70;;;;;;;9.31;88.89;96326.48;108830;1273;22521;-71
2023/10/15 04:08:59;;;;;;;6.40;1.80;;;;;;;9.29;88.35;96336.23;108837;1269;22510;-71
2023/10/15 04:11:42;;;;;;;6.80;2.30;;;;;;;9.26;88.16;96367.67;108815;1266;22506;-71
2023/10/15 04:14:26;;;;;;;7.20;1.90;;;;;;;9.22;88.13;96380.55;108871;1256;22529;-71
2023/10/15 04:17:00;;;;;;;6.70;2.00;;;;;;;9.21;88.10;96378.35;108817;1266;22535;-71
2023/10/15 04:19:31;;;;;;;5.80;1.40;;;;;;;9.18;88.04;96385.77;108830;1270;23700;-71
2023/10/15 04:22:13;;;;;;;9.30;2.40;;;;;;;9.16;88.07;96373.63;108832;1272;22510;-71
2023/10/15 04:24:46;;;;;;;8.00;1.90;;;;;;;9.15;88.03;96372.68;108888;1250;22533;-71
2023/10/15 04:27:18;;;;;;;9.70;2.00;;;;;;;9.15;87.89;96368.08;108851;1266;22547;-71
2023/10/15 04:29:55;;;;;;;7.50;2.20;;;;;;;9.14;87.82;96377.95;108842;1273;23380;-71
2023/10/15 04:32:45;;;;;;;7.70;2.10;;;;;;;9.10;87.88;96385.66;108839;1273;22518;-71
2023/10/15 04:35:18;;;;;;;8.30;2.10;;;;;;;9.07;87.91;96392.65;108841;1273;22603;-71
2023/10/15 04:37:50;;;;;;;9.60;1.80;;;;;;;9.06;87.73;96395.67;108866;1273;22572;-71
2023/10/15 04:40:23;;;;;;;5.90;1.90;;;;;;;9.04;87.58;96391.99;108943;1273;22562;-71
2023/10/15 04:42:59;;;;;;;7.40;2.20;;;;;;;9.02;87.40;96396.13;108826;1269;22518;-71
2023/10/15 04:45:41;;;;;;;4.90;1.90;;;;;;;9.01;87.27;96401.25;108807;1273;22635;-71
2023/10/15 04:48:15;;;;;;;7.30;2.00;;;;;;;9.00;87.21;96396.44;108803;1273;24280;-71
2023/10/15 04:50:47;;;;;;;6.20;1.60;;;;;;;9.01;87.03;96380.89;108803;1273;23821;-71
2023/10/15 04:53:23;;;;;;;8.10;2.60;;;;;;;9.07;87.04;96382.14;108877;1273;22525;-71
2023/10/15 04:55:56;;;;;;;5.70;1.40;;;;;;;9.12;86.95;96380.23;108802;1270;22501;-71
2023/10/15 04:58:28;;;;;;;5.90;1.90;;;;;;;9.14;86.63;96381.92;108822;1273;22987;-71
2023/10/15 05:01:04;;;;;;;5.50;1.60;;;;;;;9.13;86.43;96378.77;108802;1273;22657;-71
2023/10/15 05:03:38;;;;;;;5.40;1.40;;;;;;;9.10;86.17;96369.00;108833;1272;22542;-71
2023/10/15 05:06:11;;;;;;;4.30;1.80;;;;;;;9.06;86.08;96374.48;108827;1270;22555;-71
2023/10/15 05:08:47;;;;;;;7.80;1.80;;;;;;;9.04;85.94;96366.08;108813;1272;22629;-71
2023/10/15 05:11:21;;;;;;;5.40;2.20;;;;;;;9.01;85.65;96359.11;108841;1272;22510;-71
2023/10/15 05:13:53;;;;;;;6.80;1.90;;;;;;;9.00;85.51;96361.17;108766;1270;22538;-71
2023/10/15 05:16:26;;;;;;;8.20;2.10;;;;;;;9.00;85.41;96369.69;108797;1273;22543;-71
2023/10/15 05:19:01;;;;;;;8.70;1.90;;;;;;;8.95;85.46;96375.76;108889;1269;23908;-71
2023/10/15 05:21:35;;;;;;;5.10;2.00;;;;;;;8.92;85.64;96377.25;108886;1273;22503;-71
2023/10/15 05:24:08;;;;;;;5.70;1.60;;;;;;;8.88;85.51;96367.34;108812;1270;25418;-71
2023/10/15 05:26:40;;;;;;;4.20;1.40;;;;;;;8.86;85.31;96374.46;108845;1266;24213;-71
2023/10/15 05:29:14;;;;;;;6.30;1.60;;;;;;;8.85;85.23;96372.52;108823;1273;24933;-71
2023/10/15 05:31:46;;;;;;;8.10;1.80;;;;;;;8.83;84.83;96369.30;108881;1251;22514;-71
2023/10/15 05:34:17;;;;;;;3.90;1.00;;;;;;;8.79;84.55;96364.31;108864;1272;23843;-71
2023/10/15 05:36:49;;;;;;;8.20;1.80;;;;;;;8.72;84.46;96370.25;108867;1272;25967;-71
2023/10/15 05:39:20;;;;;;;3.00;1.40;;;;;;;8.71;84.50;96366.66;108842;1273;22979;-71
2023/10/15 05:41:52;;;;;;;7.00;1.90;;;;;;;8.70;84.34;96363.18;108855;1273;22626;-71
2023/10/15 05:44:23;;;;;;;7.40;1.90;;;;;;;8.71;84.52;96368.05;108820;1266;24187;-71
2023/10/15 05:46:54;;;;;;;7.60;2.00;;;;;;;8.74;84.56;96376.66;108907;1272;22510;-71
2023/10/15 05:49:25;;;;;;;5.30;1.70;;;;;;;8.74;84.45;96376.66;108804;1268;28462;-71
2023/10/15 05:51:57;;;;;;;5.70;2.00;;;;;;;8.71;84.52;96384.11;108870;1272;24299;-70
2023/10/15 05:54:37;;;;;;;8.70;2.70;;;;;;;8.72;84.76;96396.06;108856;1250;22780;-71
2023/10/15 05:57:10;;;;;;;;;;;;;;;8.69;84.74;96402.94;108899;1273;22498;-71
2023/10/15 05:59:43;;;;;;;9.50;1.90;;;;;;;8.65;85.09;96400.84;108850;1269;22511;-71
2023/10/15 06:02:14;;;;;;;9.90;2.70;;;;;;;8.58;85.61;96403.98;108815;1272;23083;-71
2023/10/15 06:04:47;;;;;;;4.40;2.20;;;;;;;8.63;86.03;96403.45;108801;1268;22992;-71
2023/10/15 06:07:18;;;;;;;6.20;2.40;;;;;;;8.72;85.80;96404.57;108878;1272;25428;-71
2023/10/15 06:09:50;;;;;;;6.50;2.40;;;;;;;8.77;85.72;96416.02;108913;1273;24727;-71
2023/10/15 06:12:21;;;;;;;10.20;2.40;;;;;;;9.08;85.64;96419.98;108915;1271;22507;-71
2023/10/15 06:14:53;;;;;;;4.80;2.10;;;;;;;9.23;85.40;96424.67;108911;1269;25300;-71
2023/10/15 06:17:24;;;;;;;7.70;3.00;;;;;;;9.34;85.17;96429.38;108865;1272;22530;-71
2023/10/15 06:19:55;;;;;;;4.80;1.70;;;;;;;9.37;84.95;96434.95;108841;1273;22528;-72
2023/10/15 06:22:26;;;;;;;6.10;2.00;;;;;;;9.38;84.65;96440.88;108888;1266;24671;-72
2023/10/15 06:25:04;;;;;;;9.10;2.20;;;;;;;9.39;84.06;96443.67;108792;1273;22520;-71
2023/10/15 06:27:40;;;;;;;5.80;2.00;;;;;;;9.37;83.57;96438.98;108801;1272;24685;-71
2023/10/15 06:30:16;;;;;;;6.70;2.30;;;;;;;9.24;83.08;96437.20;108804;1272;23127;-71
2023/10/15 06:32:48;;;;;;;5.40;2.10;;;;;;;9.11;82.75;96440.34;108889;1273;23851;-71
2023/10/15 06:35:25;;;;;;;6.60;1.80;;;;;;;9.13;82.84;96446.05;108884;1267;22522;-71
2023/10/15 06:37:57;;;;;;;4.40;1.90;;;;;;;9.84;82.82;96441.66;108841;1272;22634;-71
2023/10/15 06:40:30;;;;;;;6.50;1.70;;;;;;;10.69;80.62;96444.96;108783;1265;22479;-71
2023/10/15 06:43:01;;;;;;;6.70;2.60;;;;;;;11.04;78.74;96454.09;108766;1273;24913;-72
2023/10/15 06:45:33;;;;;;;5.40;1.80;;;;;;;10.68;77.32;96452.39;108855;1250;22588;-71
2023/10/15 06:48:06;;;;;;;7.00;1.60;;;;;;;10.15;76.62;96455.93;108854;1272;22564;-71
2023/10/15 06:50:38;;;;;;;4.90;1.40;;;;;;;9.90;76.65;96454.65;108798;1269;22577;-71
2023/10/15 06:53:23;;;;;;;8.70;1.70;;;;;;;9.67;76.79;96455.91;108900;1266;22514;-71
2023/10/15 06:55:55;;;;;;;4.90;1.50;;;;;;;9.61;77.04;96460.95;108859;1272;23448;-71
2023/10/15 06:58:28;;;;;;;5.50;1.40;;;;;;;9.57;77.05;96459.02;108877;1269;27035;-71
2023/10/15 07:01:02;;;;;;;4.90;1.10;;;;;;;9.47;76.94;96469.39;109098;1269;22562;-71
2023/10/15 07:03:33;;;;;;;4.50;1.10;;;;;;;9.30;76.98;96470.02;109156;1269;23165;-71
2023/10/15 07:06:10;;;;;;;6.40;2.20;;;;;;;9.18;77.10;96478.92;109102;1269;22529;-72
2023/10/15 07:08:43;;;;;;;5.30;1.50;;;;;;;9.09;77.02;96478.38;109184;1272;23125;-72
2023/10/15 07:11:15;;;;;;;6.40;1.70;;;;;;;8.95;76.91;96482.04;109162;1269;22549;-71
2023/10/15 07:13:46;;;;;;;8.20;1.70;;;;;;;8.88;77.26;96489.79;109148;1272;22550;-71
2023/10/15 07:16:19;;;;;;;5.60;1.60;;;;;;;8.89;77.13;96490.89;109053;1273;22564;-71
2023/10/15 07:18:51;;;;;;;4.90;1.50;;;;;;;8.86;77.29;96487.02;109100;1266;22739;-71
2023/10/15 07:21:25;;;;;;;9.10;1.80;;;;;;;8.87;77.25;96488.67;109103;1272;23043;-71
2023/10/15 07:23:57;;;;;;;4.40;1.50;;;;;;;8.85;77.44;96482.53;109162;1271;25502;-71
2023/10/15 07:26:31;;;;;;;9.60;2.00;;;;;;;8.79;76.99;96479.91;109121;1269;22523;-71
2023/10/15 07:29:02;;;;;;;7.00;1.60;;;;;;;8.70;76.93;96477.50;109234;1272;25444;-72
2023/10/15 07:31:38;;;;;;;9.20;1.70;;;;;;;8.67;77.16;96476.46;109090;1266;22597;-71
2023/10/15 07:34:10;;;;;;;4.90;1.40;;;;;;;8.70;77.47;96477.24;109229;1272;22553;-71
2023/10/15 07:36:43;;;;;;;5.10;1.60;;;;;;;8.75;77.79;96478.15;109089;1272;22518;-71
2023/10/15 07:39:14;;;;;;;6.10;1.60;;;;;;;8.80;77.96;96480.98;109084;1272;25028;-71
2023/10/15 07:41:46;;;;;;;4.40;1.60;;;;;;;8.86;77.96;96483.85;109108;1266;22472;-71
2023/10/15 07:44:17;;;;;;;5.70;1.60;;;;;;;8.82;77.53;96480.59;109113;1273;22547;-72
2023/10/15 07:46:52;;;;;;;5.60;2.10;;;;;;;8.75;77.36;96483.80;109143;1269;22512;-71
2023/10/15 07:49:24;;;;;;;5.20;1.50;;;;;;;8.76;77.46;96479.46;109104;1272;25865;-72
2023/10/15 07:51:57;;;;;;;13.30;1.10;;;;;;;8.72;76.79;96477.83;109135;1270;22533;-71
2023/10/15 07:54:31;;;;;;;5.20;1.40;;;;;;;8.60;75.02;96468.92;109102;1269;22560;-72
2023/10/15 07:57:02;;;;;;;6.30;1.60;;;;;;;8.55;75.50;96474.16;109104;1266;22526;-72
2023/10/15 07:59:36;;;;;;;7.90;2.00;;;;;;;8.58;75.90;96475.05;109045;1262;31777;-72
2023/10/15 08:02:12;;;;;;;6.00;1.70;;;;;;;8.54;75.65;96474.65;109072;1269;25415;-72
2023/10/15 08:04:44;;;;;;;4.60;2.00;;;;;;;8.53;75.82;96474.07;109066;1272;24976;-72
2023/10/15 08:07:15;;;;;;;6.80;2.00;;;;;;;8.58;76.12;96470.57;109106;1272;22507;-72
2023/10/15 08:09:46;;;;;;;4.40;1.70;;;;;;;8.74;76.26;96474.80;109089;1272;23058;-72
2023/10/15 08:12:18;;;;;;;4.10;1.80;;;;;;;9.04;76.07;96475.81;109072;1265;22561;-73
2023/10/15 08:14:50;;;;;;;7.60;2.00;;;;;;;9.35;75.05;96469.94;109092;1263;23694;-72
2023/10/15 08:17:23;;;;;;;7.00;1.90;;;;;;;9.60;74.72;96467.93;109069;1267;22693;-73
2023/10/15 08:19:54;;;;;;;6.20;1.80;;;;;;;9.88;74.26;96469.98;109094;1269;22525;-72
2023/10/15 08:22:28;;;;;;;7.60;2.10;;;;;;;10.00;73.99;96474.96;109113;1269;24263;-73
2023/10/15 08:24:59;;;;;;;7.30;2.10;;;;;;;9.96;73.44;96473.12;109115;1273;22522;-73
2023/10/15 08:27:33;;;;;;;6.50;2.00;;;;;;;10.03;73.19;96473.66;108993;1273;24215;-74
2023/10/15 08:30:12;;;;;;;6.60;1.90;;;;;;;10.45;72.62;96485.88;109023;1266;22552;-73
2023/10/15 08:32:45;;;;;;;9.00;2.50;;;;;;;10.52;71.18;96483.52;109114;1265;22544;-73
2023/10/15 08:35:20;;;;;;;7.00;1.60;;;;;;;10.09;69.33;96477.01;109178;1266;22514;-73
2023/10/15 08:37:52;;;;;;;7.00;1.60;;;;;;;9.55;68.98;96481.52;109133;1269;22601;-72
2023/10/15 08:40:24;;;;;;;7.80;1.80;;;;;;;9.25;69.85;96481.80;109119;1273;22531;-72
2023/10/15 08:43:05;;;;;;;4.90;1.50;;;;;;;9.13;70.48;96483.54;109121;1272;22518;-72
2023/10/15 08:45:42;;;;;;;5.70;1.40;;;;;;;8.97;70.66;96486.45;109067;1266;24219;-72
2023/10/15 08:48:16;;;;;;;4.00;1.60;;;;;;;8.86;70.93;96486.72;109093;1269;22519;-72
2023/10/15 08:50:49;;;;;;;7.10;1.60;;;;;;;8.79;71.43;96484.00;109293;1267;22536;-71
2023/10/15 08:53:24;;;;;;;5.10;1.70;;;;;;;8.82;71.89;96483.13;109367;1269;24932;-72
2023/10/15 08:55:57;;;;;;;5.30;1.80;;;;;;;8.88;71.94;96478.73;109365;1273;24196;-72
2023/10/15 08:58:33;;;;;;;8.50;2.00;;;;;;;8.96;72.34;96473.62;109362;1272;25198;-72
2023/10/15 09:01:13;;;;;;;5.10;1.70;;;;;;;9.11;72.34;96468.80;110555;1273;22303;-72
2023/10/15 09:03:45;;;;;;;5.00;1.30;;;;;;;9.24;72.36;96462.27;110558;1273;22190;-72
2023/10/15 09:06:18;;;;;;;6.00;1.40;;;;;;;9.30;72.26;96463.84;109426;1271;22500;-72
2023/10/15 09:08:52;;;;;;;3.10;1.30;;;;;;;9.36;72.20;96457.29;109028;1273;23615;-72
2023/10/15 09:11:24;;;;;;;4.50;1.90;;;;;;;9.44;71.83;96458.79;109069;1272;24228;-72
2023/10/15 09:14:02;;;;;;;7.10;2.00;;;;;;;9.44;71.79;96459.41;109092;1273;22508;-72
2023/10/15 09:16:37;;;;;;;5.50;1.40;;;;;;;9.50;71.39;96459.27;109061;1267;22469;-72
2023/10/15 09:19:12;;;;;;;4.00;1.60;;;;;;;9.50;70.73;96463.45;109062;1273;22526;-72
2023/10/15 09:21:48;;;;;;;5.30;1.10;;;;;;;9.49;69.33;96461.23;109080;1273;22702;-72
2023/10/15 09:24:20;;;;;;;4.50;1.40;;;;;;;9.42;68.03;96460.33;109088;1267;22515;-71
2023/10/15 09:26:52;;;;;;;5.40;1.50;;;;;;;9.50;68.26;96460.33;109044;1266;22507;-72
2023/10/15 09:29:23;;;;;;;3.50;1.10;;;;;;;9.47;67.20;96467.66;109064;1273;22682;-72
2023/10/15 09:32:01;;;;;;;5.10;1.40;;;;;;;9.40;66.50;96471.13;109076;1269;23753;-72
2023/10/15 09:34:37;;;;;;;2.80;0.60;;;;;;;9.38;65.96;96469.45;109073;1266;22603;-72
2023/10/15 09:37:09;;;;;;;5.90;1.20;;;;;;;9.30;65.21;96469.77;109091;1272;22518;-72
2023/10/15 09:39:43;;;;;;;5.10;1.90;;;;;;;9.32;65.30;96472.23;109069;1270;22525;-72
2023/10/15 09:42:15;;;;;;;4.90;1.60;;;;;;;9.36;65.68;96468.40;109085;1269;22559;-72
2023/10/15 09:44:49;;;;;;;5.10;1.40;;;;;;;9.47;66.14;96459.98;109109;1269;22542;-72
2023/10/15 09:47:24;;;;;;;6.60;1.50;;;;;;;9.62;66.53;96460.30;109033;1266;22534;-72
2023/10/15 09:49:56;;;;;;;6.50;1.60;;;;;;;9.67;65.88;96455.66;109092;1272;22768;-72
2023/10/15 09:52:32;;;;;;;5.80;1.60;;;;;;;9.67;65.84;96458.20;109100;1272;22579;-72
2023/10/15 09:55:11;;;;;;;5.20;1.40;;;;;;;9.73;66.15;96460.96;109148;1272;22767;-72
2023/10/15 09:57:43;;;;;;;4.50;1.40;;;;;;;9.80;65.91;96457.78;109024;1270;25436;-72
2023/10/15 10:00:25;;;;;;;4.90;1.60;;;;;;;9.71;65.56;96453.09;109044;1269;22945;-72
2023/10/15 10:03:13;;;;;;;5.20;1.10;;;;;;;9.62;65.21;96446.17;109103;1272;22513;-72
2023/10/15 10:05:57;;;;;;;5.70;1.80;;;;;;;9.45;65.19;96449.84;109085;1273;22534;-72
2023/10/15 10:08:47;;;;;;;4.20;1.30;;;;;;;9.49;66.08;96448.16;109051;1250;22612;-72
2023/10/15 10:11:35;;;;;;;6.60;1.80;;;;;;;9.52;66.43;96444.75;109095;1272;22522;-72
2023/10/15 10:14:30;;;;;;;4.70;1.60;;;;;;;9.60;66.61;96436.66;109111;1272;22506;-72
2023/10/15 10:17:03;;;;;;;9.80;1.80;;;;;;;9.60;66.03;96434.88;109086;1269;22541;-71
2023/10/15 10:19:40;;;;;;;9.10;2.10;;;;;;;9.57;65.84;96435.52;109103;1273;24176;-71
2023/10/15 10:22:24;;;;;;;4.60;1.00;;;;;;;9.60;66.06;96433.77;109079;1269;22525;-72
2023/10/15 10:24:58;;;;;;;4.80;1.30;;;;;;;9.64;66.04;96435.95;109070;1269;25937;-72
2023/10/15 10:27:41;;;;;;;5.70;1.80;;;;;;;9.57;65.32;96437.10;109051;1273;24181;-72
2023/10/15 10:30:35;;;;;;;7.20;1.80;;;;;;;9.56;65.50;96433.23;109076;1251;22526;-71
2023/10/15 10:33:10;;;;;;;5.20;1.40;;;;;;;9.69;65.57;96424.15;109053;1272;22510;-72
2023/10/15 10:35:50;;;;;;;7.10;1.90;;;;;;;9.68;65.14;96425.59;109064;1267;25941;-72
2023/10/15 10:38:24;;;;;;;4.30;1.70;;;;;;;9.72;65.22;96426.67;109071;1273;24448;-72
2023/10/15 10:41:04;;;;;;;5.70;1.70;;;;;;;9.77;65.52;96427.90;109060;1255;22520;-72
2023/10/15 10:43:42;;;;;;;4.30;1.20;;;;;;;9.81;65.25;96424.89;109050;1266;22780;-71
2023/10/15 10:46:25;;;;;;;7.80;2.00;;;;;;;9.72;65.07;96422.54;109036;1257;22518;-72
2023/10/15 10:49:13;;;;;;;4.10;1.40;;;;;;;9.68;64.99;96420.98;109051;1273;22572;-72
2023/10/15 10:52:03;;;;;;;5.80;1.50;;;;;;;9.63;64.67;96407.84;109056;1267;23190;-71
2023/10/15 10:54:37;;;;;;;4.40;1.30;;;;;;;9.52;64.60;96405.69;109065;1269;22548;-71
2023/10/15 10:57:11;;;;;;;7.90;1.80;;;;;;;9.46;64.82;96408.83;109075;1269;22521;-72
2023/10/15 10:59:44;;;;;;;7.40;3.20;;;;;;;9.37;64.67;96402.79;109030;1273;22537;-72
2023/10/15 11:02:16;;;;;;;10.80;4.80;;;;;;;9.31;64.98;96395.43;109032;1269;22515;-72
2023/10/15 11:04:48;;;;;;;13.10;8.80;;;;;;;9.30;65.51;96391.36;109069;1269;22495;-71
2023/10/15 11:07:23;;;;;;;8.40;4.60;;;;;;;9.38;65.82;96377.11;109074;1273;22511;-72
2023/10/15 11:10:01;;;;;;;7.60;3.50;;;;;;;9.42;66.09;96380.95;109115;1253;22524;-72
2023/10/15 11:12:32;;;;;;;4.10;1.70;;;;;;;9.62;66.47;96380.41;109029;1270;22515;-72
2023/10/15 11:15:08;;;;;;;4.40;1.70;;;;;;;9.69;66.13;96386.60;109146;1273;24379;-72
2023/10/15 11:17:54;;;;;;;5.60;1.80;;;;;;;9.84;66.64;96388.92;109066;1273;22552;-72
2023/10/15 11:20:27;;;;;;;4.50;1.40;;;;;;;9.91;65.65;96383.30;109044;1273;22541;-72
2023/10/15 11:23:01;;;;;;;4.60;2.00;;;;;;;9.83;65.00;96384.33;109106;1273;22577;-72
2023/10/15 11:25:34;;;;;;;4.80;1.50;;;;;;;9.70;64.68;96384.33;109070;1266;22617;-72
2023/10/15 11:28:10;;;;;;;6.10;2.20;;;;;;;9.64;64.51;96375.08;109115;1273;22527;-72
2023/10/15 11:30:42;;;;;;;4.90;1.80;;;;;;;9.71;64.97;96374.73;109076;1267;25239;-72
2023/10/15 11:33:17;;;;;;;7.70;2.40;;;;;;;9.72;64.31;96366.70;109166;1266;25422;-72
2023/10/15 11:35:52;;;;;;;6.10;2.30;;;;;;;9.73;63.96;96363.35;109106;1273;22521;-72
2023/10/15 11:38:37;;;;;;;7.90;2.10;;;;;;;9.60;63.41;96365.89;109073;1269;22618;-72
2023/10/15 11:41:12;;;;;;;6.30;2.10;;;;;;;9.54;63.11;96360.79;109075;1269;22581;-72
2023/10/15 11:43:50;;;;;;;6.60;2.20;;;;;;;9.60;63.32;96353.87;109121;1266;22869;-72
2023/10/15 11:46:25;;;;;;;4.10;1.50;;;;;;;9.58;62.90;96359.88;109063;1266;22526;-72
2023/10/15 11:49:00;;;;;;;6.90;2.10;;;;;;;9.54;62.89;96370.70;109069;1269;22525;-72
2023/10/15 11:51:39;;;;;;;5.30;1.60;;;;;;;9.54;63.01;96379.27;109118;1273;23863;-72
2023/10/15 11:54:15;;;;;;;5.80;1.50;;;;;;;9.53;63.13;96390.29;109094;1269;24016;-72
2023/10/15 11:56:51;;;;;;;4.00;1.10;;;;;;;9.45;62.82;96390.56;109067;1273;22591;-72
2023/10/15 11:59:24;;;;;;;3.10;1.60;;;;;;;9.31;61.85;96391.70;109100;1273;22518;-72
2023/10/15 12:02:01;;;;;;;5.70;1.40;;;;;;;9.23;61.90;96397.21;109057;1273;22479;-71
2023/10/15 12:04:32;;;;;;;6.10;1.70;;;;;;;9.20;62.06;96400.41;109059;1267;22509;-72
2023/10/15 12:07:15;;;;;;;4.20;1.20;;;;;;;9.18;62.23;96400.38;109076;1273;22563;-72